Time;durP1;ratioP1;P1;durP2;ratioP2;P2;SDS_P1;SDS_P2;PMS_P1;PMS_P2;Temp;Humidity;BMP_temperature;BMP_pressure;BME280_temperature;BME280_humidity;BME280_pressure;Samples;Min_cycle;Max_cycle;Signal;HPM_P1;HPM_P2
2022/06/16 00:00:40;;;;;;;;;;;;;;;;;;5078343;28;19920;-68
2022/06/16 00:03:06;;;;;;;;;;;;;;;;;;5078992;28;19958;-68
2022/06/16 00:05:37;;;;;;;;;;;;;;;;;;5095130;28;19932;-68
2022/06/16 00:08:03;;;;;;;;;;;;;;;;;;5094807;28;20343;-68
2022/06/16 00:10:37;;;;;;;;;;;;;;;;;;5095268;28;19999;-68
2022/06/16 00:13:03;;;;;;;;;;;;;;;;;;5096092;28;20002;-68
2022/06/16 00:15:33;;;;;;;;;;;;;;;;;;5095590;28;19971;-68
2022/06/16 00:18:00;;;;;;;;;;;;;;;;;;5078883;28;19928;-68
2022/06/16 00:20:33;;;;;;;;;;;;;;;;;;5095445;28;19920;-68
2022/06/16 00:23:03;;;;;;;;;;;;;;;;;;5078989;28;19924;-68
2022/06/16 00:25:29;;;;;;;;;;;;;;;;;;5078790;28;19935;-68
2022/06/16 00:27:57;;;;;;;;;;;;;;;;;;5079308;28;20412;-68
2022/06/16 00:30:23;;;;;;;;;;;;;;;;;;5095584;28;20455;-68
2022/06/16 00:32:50;;;;;;;;;;;;;;;;;;5095303;28;19928;-68
2022/06/16 00:35:17;;;;;;;;;;;;;;;;;;5096022;28;19924;-68
2022/06/16 00:37:43;;;;;;;;;;;;;;;;;;5094835;28;20057;-68
2022/06/16 00:40:09;;;;;;;;;;;;;;;;;;5094935;28;19985;-68
2022/06/16 00:42:35;;;;;;;;;;;;;;;;;;5094603;28;19931;-68
2022/06/16 00:45:01;;;;;;;;;;;;;;;;;;5077765;28;19927;-68
2022/06/16 00:47:28;;;;;;;;;;;;;;;;;;5094962;28;19920;-68
2022/06/16 00:49:56;;;;;;;;;;;;;;;;;;5077711;28;19920;-68
2022/06/16 00:52:23;;;;;;;;;;;;;;;;;;5094305;28;19942;-68
2022/06/16 00:54:51;;;;;;;;;;;;;;;;;;5094973;28;19927;-68
2022/06/16 00:57:17;;;;;;;;;;;;;;;;;;5095190;28;19924;-68
2022/06/16 00:59:44;;;;;;;;;;;;;;;;;;5077563;28;19924;-68
2022/06/16 01:02:11;;;;;;;;;;;;;;;;;;5077992;28;19964;-68
2022/06/16 01:04:54;;;;;;;;;;;;;;;;;;5094324;28;20367;-68
2022/06/16 01:07:21;;;;;;;;;;;;;;;;;;5094147;28;19934;-68
2022/06/16 01:09:52;;;;;;;;;;;;;;;;;;5094196;28;19920;-68
2022/06/16 01:15:06;;;;;;;;;;;;;;;;;;5094415;28;19920;-68
2022/06/16 01:17:37;;;;;;;;;;;;;;;;;;5094430;28;19935;-68
2022/06/16 01:20:03;;;;;;;;;;;;;;;;;;5095042;28;19928;-68
2022/06/16 01:22:29;;;;;;;;;;;;;;;;;;5097491;28;19920;-68
2022/06/16 01:24:57;;;;;;;;;;;;;;;;;;5098319;28;19924;-68
2022/06/16 01:27:24;;;;;;;;;;;;;;;;;;5081640;28;19968;-68
2022/06/16 01:29:52;;;;;;;;;;;;;;;;;;5098161;28;19960;-68
2022/06/16 01:32:18;;;;;;;;;;;;;;;;;;5081235;28;19920;-68
2022/06/16 01:34:45;;;;;;;;;;;;;;;;;;5098098;28;19973;-68
2022/06/16 01:37:13;;;;;;;;;;;;;;;;;;5097364;28;20390;-68
2022/06/16 01:39:42;;;;;;;;;;;;;;;;;;5097663;28;19920;-68
2022/06/16 01:42:08;;;;;;;;;;;;;;;;;;5081218;28;19947;-68
2022/06/16 01:44:35;;;;;;;;;;;;;;;;;;5080928;28;19928;-68
2022/06/16 01:47:01;;;;;;;;;;;;;;;;;;5098454;28;20282;-68
2022/06/16 01:49:27;;;;;;;;;;;;;;;;;;5081417;28;19920;-68
2022/06/16 01:51:57;;;;;;;;;;;;;;;;;;5097192;28;19920;-68
2022/06/16 01:54:23;;;;;;;;;;;;;;;;;;5097883;28;19920;-68
2022/06/16 01:57:00;;;;;;;;;;;;;;;;;;5097978;28;19955;-68
2022/06/16 01:59:26;;;;;;;;;;;;;;;;;;5081441;28;19927;-68
2022/06/16 02:01:52;;;;;;;;;;;;;;;;;;5080732;28;19928;-68
2022/06/16 02:04:18;;;;;;;;;;;;;;;;;;5097499;28;19920;-68
2022/06/16 02:06:44;;;;;;;;;;;;;;;;;;5097139;28;20012;-68
2022/06/16 02:09:10;;;;;;;;;;;;;;;;;;5097515;28;19924;-68
2022/06/16 02:11:36;;;;;;;;;;;;;;;;;;5098007;28;20329;-68
2022/06/16 02:14:02;;;;;;;;;;;;;;;;;;5079958;28;19924;-68
2022/06/16 02:16:28;;;;;;;;;;;;;;;;;;5080839;28;19920;-68
2022/06/16 02:19:11;;;;;;;;;;;;;;;;;;5080146;28;19923;-68
2022/06/16 02:21:38;;;;;;;;;;;;;;;;;;5096435;28;19920;-68
2022/06/16 02:24:12;;;;;;;;;;;;;;;;;;5097069;28;19927;-68
2022/06/16 02:26:41;;;;;;;;;;;;;;;;;;5067158;28;19951;-68
2022/06/16 02:29:08;;;;;;;;;;;;;;;;;;5059168;28;20278;-68
2022/06/16 02:31:35;;;;;;;;;;;;;;;;;;5076030;28;19920;-68
2022/06/16 02:34:01;;;;;;;;;;;;;;;;;;5076979;28;19920;-68
2022/06/16 02:36:28;;;;;;;;;;;;;;;;;;5076310;28;19920;-68
2022/06/16 02:38:54;;;;;;;;;;;;;;;;;;5059065;28;20291;-68
2022/06/16 02:41:20;;;;;;;;;;;;;;;;;;5074934;28;19930;-68
2022/06/16 02:43:46;;;;;;;;;;;;;;;;;;5075150;28;19931;-68
2022/06/16 02:46:12;;;;;;;;;;;;;;;;;;5075036;28;19932;-68
2022/06/16 02:48:45;;;;;;;;;;;;;;;;;;5075130;28;20271;-68
2022/06/16 02:51:12;;;;;;;;;;;;;;;;;;5074477;28;19921;-68
2022/06/16 02:53:56;;;;;;;;;;;;;;;;;;5076153;28;19920;-68
2022/06/16 02:56:24;;;;;;;;;;;;;;;;;;5059358;28;19924;-68
2022/06/16 02:58:53;;;;;;;;;;;;;;;;;;5058672;28;19946;-68
2022/06/16 03:01:20;;;;;;;;;;;;;;;;;;5075455;28;19920;-68
2022/06/16 03:03:46;;;;;;;;;;;;;;;;;;5059035;28;19999;-68
2022/06/16 03:06:13;;;;;;;;;;;;;;;;;;5075470;28;20431;-68
2022/06/16 03:08:43;;;;;;;;;;;;;;;;;;5075706;28;19921;-68
2022/06/16 03:11:11;;;;;;;;;;;;;;;;;;5074813;28;20019;-68
2022/06/16 03:13:37;;;;;;;;;;;;;;;;;;5075131;28;19964;-68
2022/06/16 03:16:04;;;;;;;;;;;;;;;;;;5058302;28;19920;-68
2022/06/16 03:18:31;;;;;;;;;;;;;;;;;;5075259;28;19925;-68
2022/06/16 03:20:57;;;;;;;;;;;;;;;;;;5075335;28;19924;-68
2022/06/16 03:23:23;;;;;;;;;;;;;;;;;;5075377;28;19926;-68
2022/06/16 03:25:49;;;;;;;;;;;;;;;;;;5064126;28;19929;-68
2022/06/16 03:28:15;;;;;;;;;;;;;;;;;;5094608;28;20393;-68
2022/06/16 03:30:41;;;;;;;;;;;;;;;;;;5095320;28;19976;-68
2022/06/16 03:33:10;;;;;;;;;;;;;;;;;;5095180;28;19926;-68
2022/06/16 03:35:39;;;;;;;;;;;;;;;;;;5077678;28;19920;-68
2022/06/16 03:40:41;;;;;;;;;;;;;;;;;;5095199;28;20010;-68
2022/06/16 03:43:08;;;;;;;;;;;;;;;;;;5093821;28;19931;-68
2022/06/16 03:45:35;;;;;;;;;;;;;;;;;;5078773;28;19924;-68
2022/06/16 03:48:02;;;;;;;;;;;;;;;;;;5095498;28;19926;-68
2022/06/16 03:50:28;;;;;;;;;;;;;;;;;;5077883;28;19965;-68
2022/06/16 03:52:54;;;;;;;;;;;;;;;;;;5077885;28;19920;-68
2022/06/16 03:55:22;;;;;;;;;;;;;;;;;;5094694;28;20020;-68
2022/06/16 03:57:50;;;;;;;;;;;;;;;;;;5094149;28;19927;-68
2022/06/16 04:00:16;;;;;;;;;;;;;;;;;;5077012;28;19920;-68
2022/06/16 04:02:42;;;;;;;;;;;;;;;;;;5094205;28;20279;-68
2022/06/16 04:05:09;;;;;;;;;;;;;;;;;;5077326;28;19931;-68
2022/06/16 04:07:37;;;;;;;;;;;;;;;;;;5078029;28;20193;-68
2022/06/16 04:10:03;;;;;;;;;;;;;;;;;;5094783;28;19920;-68
2022/06/16 04:12:29;;;;;;;;;;;;;;;;;;5094601;28;19942;-68
2022/06/16 04:14:55;;;;;;;;;;;;;;;;;;5094751;28;19927;-68
2022/06/16 04:17:22;;;;;;;;;;;;;;;;;;5077641;28;20003;-68
2022/06/16 04:22:36;;;;;;;;;;;;;;;;;;5094431;28;20251;-68
2022/06/16 04:25:02;;;;;;;;;;;;;;;;;;5094697;28;19924;-68
2022/06/16 04:27:28;;;;;;;;;;;;;;;;;;5074777;28;19974;-67
2022/06/16 04:29:56;;;;;;;;;;;;;;;;;;5057685;28;19928;-67
2022/06/16 04:32:29;;;;;;;;;;;;;;;;;;5075201;28;19924;-67
2022/06/16 04:34:58;;;;;;;;;;;;;;;;;;5074655;28;19927;-67
2022/06/16 04:37:26;;;;;;;;;;;;;;;;;;5058155;28;19920;-67
2022/06/16 04:39:55;;;;;;;;;;;;;;;;;;5058235;28;19924;-67
2022/06/16 04:42:22;;;;;;;;;;;;;;;;;;5074292;28;19928;-67
2022/06/16 04:44:49;;;;;;;;;;;;;;;;;;5058470;28;19924;-67
2022/06/16 04:47:18;;;;;;;;;;;;;;;;;;5058034;28;19921;-67
2022/06/16 04:49:48;;;;;;;;;;;;;;;;;;5056625;28;20015;-67
2022/06/16 04:52:18;;;;;;;;;;;;;;;;;;5073499;28;19920;-68
2022/06/16 04:54:48;;;;;;;;;;;;;;;;;;5075824;28;19959;-68
2022/06/16 04:57:16;;;;;;;;;;;;;;;;;;5060780;28;19942;-68
2022/06/16 04:59:42;;;;;;;;;;;;;;;;;;5077154;28;19947;-68
2022/06/16 05:02:09;;;;;;;;;;;;;;;;;;5077672;28;19920;-68
2022/06/16 05:04:39;;;;;;;;;;;;;;;;;;5060435;28;19925;-68
2022/06/16 05:07:05;;;;;;;;;;;;;;;;;;5060569;28;19979;-68
2022/06/16 05:09:34;;;;;;;;;;;;;;;;;;5076910;28;20266;-68
2022/06/16 05:12:02;;;;;;;;;;;;;;;;;;5076553;28;19930;-68
2022/06/16 05:14:28;;;;;;;;;;;;;;;;;;5076389;28;19924;-68
2022/06/16 05:16:54;;;;;;;;;;;;;;;;;;5076553;28;19981;-68
2022/06/16 05:19:23;;;;;;;;;;;;;;;;;;5076419;28;19924;-68
2022/06/16 05:21:49;;;;;;;;;;;;;;;;;;5076526;28;19927;-68
2022/06/16 05:24:15;;;;;;;;;;;;;;;;;;5059863;28;20015;-68
2022/06/16 05:26:42;;;;;;;;;;;;;;;;;;5059597;28;19960;-68
2022/06/16 05:29:11;;;;;;;;;;;;;;;;;;5059902;28;20329;-68
2022/06/16 05:31:37;;;;;;;;;;;;;;;;;;5076592;28;20437;-68
2022/06/16 05:34:03;;;;;;;;;;;;;;;;;;5059958;28;19956;-68
2022/06/16 05:36:28;;;;;;;;;;;;;;;;;;5059781;28;19943;-68
2022/06/16 05:38:54;;;;;;;;;;;;;;;;;;5076516;28;19920;-68
2022/06/16 05:41:21;;;;;;;;;;;;;;;;;;5059660;28;19924;-68
2022/06/16 05:43:48;;;;;;;;;;;;;;;;;;5060132;28;19977;-68
2022/06/16 05:46:16;;;;;;;;;;;;;;;;;;5059695;28;19964;-68
2022/06/16 05:48:46;;;;;;;;;;;;;;;;;;5076418;28;19975;-67
2022/06/16 05:51:12;;;;;;;;;;;;;;;;;;5096262;28;19920;-69
2022/06/16 05:53:39;;;;;;;;;;;;;;;;;;5096202;28;20295;-69
2022/06/16 05:56:05;;;;;;;;;;;;;;;;;;5094632;28;19924;-70
2022/06/16 05:58:31;;;;;;;;;;;;;;;;;;5075549;28;19931;-70
2022/06/16 06:00:57;;;;;;;;;;;;;;;;;;5093139;28;19920;-70
2022/06/16 06:03:24;;;;;;;;;;;;;;;;;;5094579;28;19927;-69
2022/06/16 06:05:51;;;;;;;;;;;;;;;;;;5094569;28;19924;-70
2022/06/16 06:16:36;;;;;;;;;;;;;;;;;;5088581;28;20306;-71
2022/06/16 06:22:03;;;;;;;;;;;;;;;;;;5105151;28;20275;-70
2022/06/16 06:24:29;;;;;;;;;;;;;;;;;;5074058;28;19953;-70
2022/06/16 06:26:56;;;;;;;;;;;;;;;;;;5093218;28;20370;-69
2022/06/16 06:29:22;;;;;;;;;;;;;;;;;;5091757;28;20011;-70
2022/06/16 06:31:48;;;;;;;;;;;;;;;;;;5083103;28;20003;-69
2022/06/16 06:34:14;;;;;;;;;;;;;;;;;;5086342;28;19926;-68
2022/06/16 06:36:40;;;;;;;;;;;;;;;;;;5091259;28;19991;-71
2022/06/16 06:39:06;;;;;;;;;;;;;;;;;;5090710;28;19942;-68
2022/06/16 06:41:32;;;;;;;;;;;;;;;;;;5090785;28;19942;-72
2022/06/16 06:43:59;;;;;;;;;;;;;;;;;;5090004;28;19947;-69
2022/06/16 06:46:25;;;;;;;;;;;;;;;;;;5091522;28;19971;-69
2022/06/16 06:48:51;;;;;;;;;;;;;;;;;;5089664;28;19958;-70
2022/06/16 06:51:17;;;;;;;;;;;;;;;;;;5090559;28;19966;-71
2022/06/16 06:53:43;;;;;;;;;;;;;;;;;;5089531;28;20003;-69
2022/06/16 06:56:09;;;;;;;;;;;;;;;;;;5091886;28;20325;-71
2022/06/16 06:58:35;;;;;;;;;;;;;;;;;;5090006;28;19920;-71
2022/06/16 07:01:01;;;;;;;;;;;;;;;;;;5089816;28;20061;-71
2022/06/16 07:03:27;;;;;;;;;;;;;;;;;;5091607;28;19927;-69
2022/06/16 07:05:53;;;;;;;;;;;;;;;;;;5100150;28;19928;-71
2022/06/16 07:08:19;;;;;;;;;;;;;;;;;;5090834;28;20015;-69
2022/06/16 07:10:45;;;;;;;;;;;;;;;;;;5091884;28;19920;-69
2022/06/16 07:13:11;;;;;;;;;;;;;;;;;;5091759;28;20033;-69
2022/06/16 07:15:37;;;;;;;;;;;;;;;;;;5091047;28;19920;-68
2022/06/16 07:18:03;;;;;;;;;;;;;;;;;;5091174;28;19920;-69
2022/06/16 07:20:30;;;;;;;;;;;;;;;;;;5092201;28;19926;-71
2022/06/16 07:22:56;;;;;;;;;;;;;;;;;;5107130;28;20402;-73
2022/06/16 07:25:22;;;;;;;;;;;;;;;;;;5091105;28;19935;-69
2022/06/16 07:27:48;;;;;;;;;;;;;;;;;;5080225;28;19924;-68
2022/06/16 07:30:14;;;;;;;;;;;;;;;;;;5089325;28;19982;-70
2022/06/16 07:32:40;;;;;;;;;;;;;;;;;;5089844;28;19931;-70
2022/06/16 07:35:06;;;;;;;;;;;;;;;;;;5090426;28;19920;-70
2022/06/16 07:37:32;;;;;;;;;;;;;;;;;;5091171;28;19950;-71
2022/06/16 07:39:58;;;;;;;;;;;;;;;;;;5088134;28;20061;-69
2022/06/16 07:42:24;;;;;;;;;;;;;;;;;;5090798;28;19932;-70
2022/06/16 07:44:50;;;;;;;;;;;;;;;;;;5089262;28;19925;-70
2022/06/16 07:47:18;;;;;;;;;;;;;;;;;;5088109;28;22348;-70
2022/06/16 07:49:45;;;;;;;;;;;;;;;;;;5090149;28;20026;-69
2022/06/16 07:52:11;;;;;;;;;;;;;;;;;;5090770;28;19985;-70
2022/06/16 07:54:38;;;;;;;;;;;;;;;;;;5088425;28;19924;-71
2022/06/16 07:57:04;;;;;;;;;;;;;;;;;;5089478;28;20301;-69
2022/06/16 07:59:30;;;;;;;;;;;;;;;;;;5091094;28;19928;-69
2022/06/16 08:01:56;;;;;;;;;;;;;;;;;;5082694;28;19920;-70
2022/06/16 08:04:22;;;;;;;;;;;;;;;;;;5087421;28;19950;-70
2022/06/16 08:06:48;;;;;;;;;;;;;;;;;;5090460;28;19920;-70
2022/06/16 08:09:14;;;;;;;;;;;;;;;;;;5090070;28;19993;-69
2022/06/16 08:14:25;;;;;;;;;;;;;;;;;;5089642;28;20398;-70
2022/06/16 08:16:51;;;;;;;;;;;;;;;;;;5090165;28;20478;-71
2022/06/16 08:19:17;;;;;;;;;;;;;;;;;;5090667;28;19928;-69
2022/06/16 08:21:43;;;;;;;;;;;;;;;;;;5090171;28;19928;-70
2022/06/16 08:24:09;;;;;;;;;;;;;;;;;;5088211;28;19924;-71
2022/06/16 08:26:35;;;;;;;;;;;;;;;;;;5098815;28;19966;-71
2022/06/16 08:29:01;;;;;;;;;;;;;;;;;;5094497;28;19971;-71
2022/06/16 08:31:27;;;;;;;;;;;;;;;;;;5094133;28;19997;-70
2022/06/16 08:33:53;;;;;;;;;;;;;;;;;;5093453;28;19931;-70
2022/06/16 08:36:19;;;;;;;;;;;;;;;;;;5092949;28;20022;-71
2022/06/16 08:38:45;;;;;;;;;;;;;;;;;;5092956;28;20493;-71
2022/06/16 08:41:15;;;;;;;;;;;;;;;;;;5094662;28;19942;-72
2022/06/16 08:43:41;;;;;;;;;;;;;;;;;;5092413;28;20321;-71
2022/06/16 08:46:07;;;;;;;;;;;;;;;;;;5093953;28;19974;-71
2022/06/16 08:48:33;;;;;;;;;;;;;;;;;;5095077;28;19942;-70
2022/06/16 08:50:59;;;;;;;;;;;;;;;;;;5094620;28;20288;-70
2022/06/16 08:53:25;;;;;;;;;;;;;;;;;;5093981;28;19924;-72
2022/06/16 08:55:51;;;;;;;;;;;;;;;;;;5075595;28;20671;-71
2022/06/16 08:58:17;;;;;;;;;;;;;;;;;;5083604;28;20018;-70
2022/06/16 09:00:44;;;;;;;;;;;;;;;;;;5093768;28;19950;-69
2022/06/16 09:03:10;;;;;;;;;;;;;;;;;;5092502;28;19920;-68
2022/06/16 09:05:36;;;;;;;;;;;;;;;;;;5093892;28;20019;-71
2022/06/16 09:08:02;;;;;;;;;;;;;;;;;;5094009;28;20011;-70
2022/06/16 09:10:28;;;;;;;;;;;;;;;;;;5093320;28;19920;-70
2022/06/16 09:12:54;;;;;;;;;;;;;;;;;;5095420;28;19942;-71
2022/06/16 09:15:23;;;;;;;;;;;;;;;;;;5093495;28;19920;-72
2022/06/16 09:17:49;;;;;;;;;;;;;;;;;;5075475;28;19920;-72
2022/06/16 09:20:15;;;;;;;;;;;;;;;;;;5094179;28;19920;-70
2022/06/16 09:22:41;;;;;;;;;;;;;;;;;;5093609;28;20018;-71
2022/06/16 09:25:06;;;;;;;;;;;;;;;;;;5093166;28;20031;-71
2022/06/16 09:27:32;;;;;;;;;;;;;;;;;;5092553;28;19927;-70
2022/06/16 09:29:58;;;;;;;;;;;;;;;;;;5093045;28;19924;-69
2022/06/16 09:32:24;;;;;;;;;;;;;;;;;;5093570;28;20310;-71
2022/06/16 09:34:50;;;;;;;;;;;;;;;;;;5092394;28;20028;-71
2022/06/16 09:37:16;;;;;;;;;;;;;;;;;;5093028;28;19927;-71
2022/06/16 09:39:42;;;;;;;;;;;;;;;;;;5093195;28;20019;-71
2022/06/16 09:44:53;;;;;;;;;;;;;;;;;;5090692;28;19977;-72
2022/06/16 09:47:19;;;;;;;;;;;;;;;;;;5091003;28;20022;-71
2022/06/16 09:49:45;;;;;;;;;;;;;;;;;;5091721;28;20088;-70
2022/06/16 09:52:11;;;;;;;;;;;;;;;;;;5092835;28;19928;-70
2022/06/16 09:54:36;;;;;;;;;;;;;;;;;;5093076;28;19943;-74
2022/06/16 09:57:02;;;;;;;;;;;;;;;;;;5093129;28;20010;-72
2022/06/16 09:59:28;;;;;;;;;;;;;;;;;;5091366;28;20282;-70
2022/06/16 10:01:54;;;;;;;;;;;;;;;;;;5091097;28;19924;-70
2022/06/16 10:04:20;;;;;;;;;;;;;;;;;;5091810;28;20417;-68
2022/06/16 10:06:48;;;;;;;;;;;;;;;;;;5092681;28;19924;-67
2022/06/16 10:09:16;;;;;;;;;;;;;;;;;;5093032;28;19924;-69
2022/06/16 10:11:42;;;;;;;;;;;;;;;;;;5093083;28;20549;-69
2022/06/16 10:14:08;;;;;;;;;;;;;;;;;;5075308;28;19928;-68
2022/06/16 10:16:34;;;;;;;;;;;;;;;;;;5092888;28;20270;-70
2022/06/16 10:19:00;;;;;;;;;;;;;;;;;;5093066;28;19923;-71
2022/06/16 10:21:26;;;;;;;;;;;;;;;;;;5092176;28;20022;-72
2022/06/16 10:23:52;;;;;;;;;;;;;;;;;;5092894;28;19924;-77
2022/06/16 10:26:18;;;;;;;;;;;;;;;;;;5086854;28;20007;-76
2022/06/16 10:28:44;;;;;;;;;;;;;;;;;;5073743;28;20007;-72
2022/06/16 10:31:10;;;;;;;;;;;;;;;;;;5091163;28;19995;-72
2022/06/16 10:33:36;;;;;;;;;;;;;;;;;;5090712;28;20022;-71
2022/06/16 10:36:02;;;;;;;;;;;;;;;;;;5090095;28;20237;-72
2022/06/16 10:38:29;;;;;;;;;;;;;;;;;;5090803;28;19927;-69
2022/06/16 10:40:55;;;;;;;;;;;;;;;;;;5091486;28;20346;-72
2022/06/16 10:43:21;;;;;;;;;;;;;;;;;;5097609;28;19928;-72
2022/06/16 10:45:47;;;;;;;;;;;;;;;;;;5090722;28;19931;-72
2022/06/16 10:48:13;;;;;;;;;;;;;;;;;;5090229;28;19963;-73
2022/06/16 10:50:39;;;;;;;;;;;;;;;;;;5090264;28;19920;-73
2022/06/16 10:53:05;;;;;;;;;;;;;;;;;;5092591;28;19920;-73
2022/06/16 10:55:31;;;;;;;;;;;;;;;;;;5097633;28;19946;-73
2022/06/16 10:57:58;;;;;;;;;;;;;;;;;;5089383;28;19924;-72
2022/06/16 11:00:24;;;;;;;;;;;;;;;;;;5091817;28;19920;-72
2022/06/16 11:02:50;;;;;;;;;;;;;;;;;;5090274;28;19984;-72
2022/06/16 11:05:16;;;;;;;;;;;;;;;;;;5089527;28;19928;-66
2022/06/16 11:07:41;;;;;;;;;;;;;;;;;;5091185;28;19985;-66
2022/06/16 11:10:07;;;;;;;;;;;;;;;;;;5091848;28;19920;-65
2022/06/16 11:12:33;;;;;;;;;;;;;;;;;;5091275;28;19923;-66
2022/06/16 11:14:59;;;;;;;;;;;;;;;;;;5091412;28;19989;-65
2022/06/16 11:17:25;;;;;;;;;;;;;;;;;;5095607;28;19931;-65
2022/06/16 11:19:51;;;;;;;;;;;;;;;;;;5095187;28;20031;-67
2022/06/16 11:22:17;;;;;;;;;;;;;;;;;;5091642;28;19926;-64
2022/06/16 11:24:43;;;;;;;;;;;;;;;;;;5091079;28;19928;-66
2022/06/16 11:27:09;;;;;;;;;;;;;;;;;;5090673;28;19946;-65
2022/06/16 11:29:35;;;;;;;;;;;;;;;;;;5090874;28;19927;-66
2022/06/16 11:32:01;;;;;;;;;;;;;;;;;;5091584;28;20023;-65
2022/06/16 11:34:30;;;;;;;;;;;;;;;;;;5090962;28;20006;-65
2022/06/16 11:36:58;;;;;;;;;;;;;;;;;;5100127;28;19920;-65
2022/06/16 11:39:24;;;;;;;;;;;;;;;;;;5081418;28;19921;-66
2022/06/16 11:41:50;;;;;;;;;;;;;;;;;;5090682;28;19924;-65
2022/06/16 11:44:16;;;;;;;;;;;;;;;;;;5090875;28;19943;-66
2022/06/16 11:46:43;;;;;;;;;;;;;;;;;;5091264;28;20573;-65
2022/06/16 11:49:09;;;;;;;;;;;;;;;;;;5090667;28;19924;-64
2022/06/16 11:51:35;;;;;;;;;;;;;;;;;;5090768;28;19927;-65
2022/06/16 11:54:01;;;;;;;;;;;;;;;;;;5091041;28;20313;-64
2022/06/16 11:56:27;;;;;;;;;;;;;;;;;;5090427;28;19943;-64
2022/06/16 11:58:53;;;;;;;;;;;;;;;;;;5089388;28;20378;-64
2022/06/16 12:01:19;;;;;;;;;;;;;;;;;;5090919;28;19943;-64
2022/06/16 12:03:45;;;;;;;;;;;;;;;;;;5085107;28;20066;-64
2022/06/16 12:06:11;;;;;;;;;;;;;;;;;;5083829;28;19932;-63
2022/06/16 12:08:37;;;;;;;;;;;;;;;;;;5082733;28;19924;-64
2022/06/16 12:11:03;;;;;;;;;;;;;;;;;;5090188;28;19920;-65
2022/06/16 12:13:29;;;;;;;;;;;;;;;;;;5090101;28;19941;-65
2022/06/16 12:15:55;;;;;;;;;;;;;;;;;;5090896;28;19923;-64
2022/06/16 12:18:21;;;;;;;;;;;;;;;;;;5090824;28;20480;-65
2022/06/16 12:20:47;;;;;;;;;;;;;;;;;;5089549;28;19920;-65
2022/06/16 12:23:13;;;;;;;;;;;;;;;;;;5090203;28;19982;-65
2022/06/16 12:25:39;;;;;;;;;;;;;;;;;;5090449;28;20009;-66
2022/06/16 12:28:05;;;;;;;;;;;;;;;;;;5089951;28;19920;-65
2022/06/16 12:30:31;;;;;;;;;;;;;;;;;;5089849;28;19967;-65
2022/06/16 12:32:57;;;;;;;;;;;;;;;;;;5090456;28;19967;-65
2022/06/16 12:35:23;;;;;;;;;;;;;;;;;;5088420;28;20040;-66
2022/06/16 12:37:49;;;;;;;;;;;;;;;;;;5089226;28;19920;-66
2022/06/16 12:40:15;;;;;;;;;;;;;;;;;;5088563;28;19953;-67
2022/06/16 12:42:41;;;;;;;;;;;;;;;;;;5089719;28;19932;-65
2022/06/16 12:45:07;;;;;;;;;;;;;;;;;;5090115;28;19981;-65
2022/06/16 12:47:32;;;;;;;;;;;;;;;;;;5090633;28;20357;-66
2022/06/16 12:49:58;;;;;;;;;;;;;;;;;;5089846;28;19946;-65
2022/06/16 12:52:24;;;;;;;;;;;;;;;;;;5090241;28;20536;-65
2022/06/16 12:54:50;;;;;;;;;;;;;;;;;;5090518;28;19930;-65
2022/06/16 12:57:16;;;;;;;;;;;;;;;;;;5089695;28;20317;-66
2022/06/16 12:59:42;;;;;;;;;;;;;;;;;;5089990;28;19994;-65
2022/06/16 13:02:08;;;;;;;;;;;;;;;;;;5090236;28;19919;-65
2022/06/16 13:04:34;;;;;;;;;;;;;;;;;;5089643;28;19973;-65
2022/06/16 13:07:00;;;;;;;;;;;;;;;;;;5090349;28;20040;-66
2022/06/16 13:09:26;;;;;;;;;;;;;;;;;;5089659;28;19939;-65
2022/06/16 13:11:53;;;;;;;;;;;;;;;;;;5097179;28;19924;-65
2022/06/16 13:14:19;;;;;;;;;;;;;;;;;;5090336;28;19924;-66
2022/06/16 13:16:49;;;;;;;;;;;;;;;;;;5093538;28;19920;-66
2022/06/16 13:19:15;;;;;;;;;;;;;;;;;;5093331;28;19923;-65
2022/06/16 13:21:40;;;;;;;;;;;;;;;;;;5096061;28;20053;-65
2022/06/16 13:24:06;;;;;;;;;;;;;;;;;;5093651;28;19920;-65
2022/06/16 13:26:32;;;;;;;;;;;;;;;;;;5101755;28;19928;-65
2022/06/16 13:29:00;;;;;;;;;;;;;;;;;;5094055;28;19920;-65
2022/06/16 13:31:28;;;;;;;;;;;;;;;;;;5093870;28;20366;-66
2022/06/16 13:33:54;;;;;;;;;;;;;;;;;;5093460;28;19920;-67
2022/06/16 13:36:20;;;;;;;;;;;;;;;;;;5092310;28;20389;-66
2022/06/16 13:38:46;;;;;;;;;;;;;;;;;;5093834;28;19920;-65
2022/06/16 13:41:12;;;;;;;;;;;;;;;;;;5092630;28;20003;-65
2022/06/16 13:43:38;;;;;;;;;;;;;;;;;;5093266;28;20011;-65
2022/06/16 13:46:04;;;;;;;;;;;;;;;;;;5093865;28;20318;-65
2022/06/16 13:48:30;;;;;;;;;;;;;;;;;;5093075;28;19986;-66
2022/06/16 13:50:56;;;;;;;;;;;;;;;;;;5093209;28;20321;-66
2022/06/16 13:53:22;;;;;;;;;;;;;;;;;;5093397;28;19969;-66
2022/06/16 13:55:48;;;;;;;;;;;;;;;;;;5092820;28;19973;-66
2022/06/16 13:58:14;;;;;;;;;;;;;;;;;;5092244;28;19924;-65
2022/06/16 14:00:40;;;;;;;;;;;;;;;;;;5093205;28;19920;-65
2022/06/16 14:03:06;;;;;;;;;;;;;;;;;;5092674;28;19921;-66
2022/06/16 14:05:32;;;;;;;;;;;;;;;;;;5091804;28;19935;-66
2022/06/16 14:07:58;;;;;;;;;;;;;;;;;;5093405;28;19920;-65
2022/06/16 14:10:24;;;;;;;;;;;;;;;;;;5092557;28;19920;-65
2022/06/16 14:12:50;;;;;;;;;;;;;;;;;;5088481;28;19943;-64
2022/06/16 14:15:17;;;;;;;;;;;;;;;;;;5093086;28;20010;-65
2022/06/16 14:17:42;;;;;;;;;;;;;;;;;;5092833;28;20010;-64
2022/06/16 14:20:08;;;;;;;;;;;;;;;;;;5093027;28;20011;-64
2022/06/16 14:22:36;;;;;;;;;;;;;;;;;;5092860;28;19920;-64
2022/06/16 14:25:04;;;;;;;;;;;;;;;;;;5091997;28;19928;-63
2022/06/16 14:27:30;;;;;;;;;;;;;;;;;;5090478;28;19959;-63
2022/06/16 14:29:56;;;;;;;;;;;;;;;;;;5092883;28;20412;-63
2022/06/16 14:32:22;;;;;;;;;;;;;;;;;;5092151;28;19924;-65
2022/06/16 14:34:48;;;;;;;;;;;;;;;;;;5092694;28;19924;-65
2022/06/16 14:37:14;;;;;;;;;;;;;;;;;;5092718;28;20026;-63
2022/06/16 14:39:40;;;;;;;;;;;;;;;;;;5092008;28;19920;-64
2022/06/16 14:42:06;;;;;;;;;;;;;;;;;;5092506;28;19971;-64
2022/06/16 14:44:32;;;;;;;;;;;;;;;;;;5092055;28;19974;-63
2022/06/16 14:46:58;;;;;;;;;;;;;;;;;;5091842;28;19930;-64
2022/06/16 14:49:24;;;;;;;;;;;;;;;;;;5092756;28;19973;-63
2022/06/16 14:51:50;;;;;;;;;;;;;;;;;;5092296;28;19928;-63
2022/06/16 14:54:16;;;;;;;;;;;;;;;;;;5091742;28;20366;-62
2022/06/16 14:56:42;;;;;;;;;;;;;;;;;;5092199;28;20010;-63
2022/06/16 14:59:08;;;;;;;;;;;;;;;;;;5091381;28;19924;-67
2022/06/16 15:01:34;;;;;;;;;;;;;;;;;;5099899;28;19963;-67
2022/06/16 15:04:00;;;;;;;;;;;;;;;;;;5111495;28;19979;-67
2022/06/16 15:06:26;;;;;;;;;;;;;;;;;;5111543;28;19946;-67
2022/06/16 15:08:52;;;;;;;;;;;;;;;;;;5111728;28;19924;-67
2022/06/16 15:11:18;;;;;;;;;;;;;;;;;;5111143;28;19920;-67
2022/06/16 15:13:44;;;;;;;;;;;;;;;;;;5112142;28;19923;-67
2022/06/16 15:18:56;;;;;;;;;;;;;;;;;;5090912;28;19919;-68
2022/06/16 15:21:22;;;;;;;;;;;;;;;;;;5113112;28;20036;-68
2022/06/16 15:23:48;;;;;;;;;;;;;;;;;;5113377;28;19920;-68
2022/06/16 15:26:14;;;;;;;;;;;;;;;;;;5101984;28;19947;-68
2022/06/16 15:28:40;;;;;;;;;;;;;;;;;;5091432;28;19969;-68
2022/06/16 15:31:06;;;;;;;;;;;;;;;;;;5074109;28;20010;-68
2022/06/16 15:36:16;;;;;;;;;;;;;;;;;;5091102;28;20298;-68
2022/06/16 15:38:42;;;;;;;;;;;;;;;;;;5089722;28;20008;-68
2022/06/16 15:41:08;;;;;;;;;;;;;;;;;;5090953;28;19920;-68
2022/06/16 15:43:34;;;;;;;;;;;;;;;;;;5092076;28;19930;-68
2022/06/16 15:46:00;;;;;;;;;;;;;;;;;;5090922;28;19924;-68
2022/06/16 15:48:26;;;;;;;;;;;;;;;;;;5090614;28;20379;-68
2022/06/16 15:50:53;;;;;;;;;;;;;;;;;;5091099;28;19924;-68
2022/06/16 15:53:19;;;;;;;;;;;;;;;;;;5090980;28;19934;-68
2022/06/16 15:55:45;;;;;;;;;;;;;;;;;;5091709;28;20011;-69
2022/06/16 15:58:11;;;;;;;;;;;;;;;;;;5090799;28;19924;-69
2022/06/16 16:00:37;;;;;;;;;;;;;;;;;;5090695;28;19927;-70
2022/06/16 16:03:03;;;;;;;;;;;;;;;;;;5073154;28;20014;-69
2022/06/16 16:05:29;;;;;;;;;;;;;;;;;;5090800;28;19924;-69
2022/06/16 16:07:55;;;;;;;;;;;;;;;;;;5092078;28;20496;-69
2022/06/16 16:10:22;;;;;;;;;;;;;;;;;;5091271;28;19928;-69
2022/06/16 16:12:48;;;;;;;;;;;;;;;;;;5091939;28;20018;-69
2022/06/16 16:15:14;;;;;;;;;;;;;;;;;;5092108;28;19990;-69
2022/06/16 16:17:40;;;;;;;;;;;;;;;;;;5089770;28;19959;-69
2022/06/16 16:20:06;;;;;;;;;;;;;;;;;;5090494;28;19920;-69
2022/06/16 16:22:32;;;;;;;;;;;;;;;;;;5090561;28;20293;-69
2022/06/16 16:24:58;;;;;;;;;;;;;;;;;;5089960;28;20073;-69
2022/06/16 16:27:24;;;;;;;;;;;;;;;;;;5071658;28;19925;-69
2022/06/16 16:29:50;;;;;;;;;;;;;;;;;;5070289;28;19920;-69
2022/06/16 16:32:16;;;;;;;;;;;;;;;;;;5069891;28;19963;-69
2022/06/16 16:34:42;;;;;;;;;;;;;;;;;;5070700;28;19924;-69
2022/06/16 16:37:08;;;;;;;;;;;;;;;;;;5070256;28;19970;-69
2022/06/16 16:39:35;;;;;;;;;;;;;;;;;;5069527;28;19921;-69
2022/06/16 16:44:45;;;;;;;;;;;;;;;;;;5070082;28;19931;-69
2022/06/16 16:47:11;;;;;;;;;;;;;;;;;;5069466;28;19924;-69
2022/06/16 16:49:37;;;;;;;;;;;;;;;;;;5070430;28;19920;-70
2022/06/16 16:52:03;;;;;;;;;;;;;;;;;;5075531;28;19959;-69
2022/06/16 16:54:29;;;;;;;;;;;;;;;;;;5073262;28;19951;-69
2022/06/16 16:56:55;;;;;;;;;;;;;;;;;;5073803;28;19931;-69
2022/06/16 16:59:21;;;;;;;;;;;;;;;;;;5073721;28;20642;-69
2022/06/16 17:01:49;;;;;;;;;;;;;;;;;;5072928;28;19920;-69
2022/06/16 17:04:15;;;;;;;;;;;;;;;;;;5073678;28;19935;-69
2022/06/16 17:06:41;;;;;;;;;;;;;;;;;;5073603;28;20311;-69
2022/06/16 17:09:07;;;;;;;;;;;;;;;;;;5073006;28;19993;-70
2022/06/16 17:11:52;;;;;;;;;;;;;;;;;;5073579;28;19921;-70
2022/06/16 17:14:17;;;;;;;;;;;;;;;;;;5073784;28;19921;-70